地図

経路データ

SID SEASON NUMBER BASIN SUBBASIN NAME ISO_TIME NATURE LAT LON WMO_WIND WMO_PRES WMO_AGENCY TRACK_TYPE DIST2LAND LANDFALL IFLAG USA_AGENCY USA_ATCF_ID USA_LAT USA_LON USA_RECORD USA_STATUS USA_WIND USA_PRES USA_SSHS USA_R34_NE USA_R34_SE USA_R34_SW USA_R34_NW USA_R50_NE USA_R50_SE USA_R50_SW USA_R50_NW USA_R64_NE USA_R64_SE USA_R64_SW USA_R64_NW USA_POCI USA_ROCI USA_RMW USA_EYE TOKYO_LAT TOKYO_LON TOKYO_GRADE TOKYO_WIND TOKYO_PRES TOKYO_R50_DIR TOKYO_R50_LONG TOKYO_R50_SHORT TOKYO_R30_DIR TOKYO_R30_LONG TOKYO_R30_SHORT TOKYO_LAND CMA_LAT CMA_LON CMA_CAT CMA_WIND CMA_PRES HKO_LAT HKO_LON HKO_CAT HKO_WIND HKO_PRES NEWDELHI_LAT NEWDELHI_LON NEWDELHI_GRADE NEWDELHI_WIND NEWDELHI_PRES NEWDELHI_CI NEWDELHI_DP NEWDELHI_POCI REUNION_LAT REUNION_LON REUNION_TYPE REUNION_WIND REUNION_PRES REUNION_TNUM REUNION_CI REUNION_RMW REUNION_R34_NE REUNION_R34_SE REUNION_R34_SW REUNION_R34_NW REUNION_R50_NE REUNION_R50_SE REUNION_R50_SW REUNION_R50_NW REUNION_R64_NE REUNION_R64_SE REUNION_R64_SW REUNION_R64_NW BOM_LAT BOM_LON BOM_TYPE BOM_WIND BOM_PRES BOM_TNUM BOM_CI BOM_RMW BOM_R34_NE BOM_R34_SE BOM_R34_SW BOM_R34_NW BOM_R50_NE BOM_R50_SE BOM_R50_SW BOM_R50_NW BOM_R64_NE BOM_R64_SE BOM_R64_SW BOM_R64_NW BOM_ROCI BOM_POCI BOM_EYE BOM_POS_METHOD BOM_PRES_METHOD NADI_LAT NADI_LON NADI_CAT NADI_WIND NADI_PRES WELLINGTON_LAT WELLINGTON_LON WELLINGTON_WIND WELLINGTON_PRES DS824_LAT DS824_LON DS824_STAGE DS824_WIND DS824_PRES TD9636_LAT TD9636_LON TD9636_STAGE TD9636_WIND TD9636_PRES TD9635_LAT TD9635_LON TD9635_WIND TD9635_PRES TD9635_ROCI NEUMANN_LAT NEUMANN_LON NEUMANN_CLASS NEUMANN_WIND NEUMANN_PRES MLC_LAT MLC_LON MLC_CLASS MLC_WIND MLC_PRES USA_GUST BOM_GUST BOM_GUST_PER REUNION_GUST REUNION_GUST_PER USA_SEAHGT USA_SEARAD_NE USA_SEARAD_SE USA_SEARAD_SW USA_SEARAD_NW STORM_SPEED STORM_DIR
2020293N14129 2020 36 WP MM SAUDEL 2020-10-19 00:00:00 NR 13.8000 129.400 PROVISIONAL 459 414 O_____________ tcvitals WP192020 13.8000 129.400 25 1005 -1 1007 240 60 10 276
2020293N14129 2020 36 WP MM SAUDEL 2020-10-19 03:00:00 NR 13.8576 128.865 PROVISIONAL 414 358 P_____________ WP192020 13.8576 128.865 27 1003 -1 1005 240 60 11 275
2020293N14129 2020 36 WP MM SAUDEL 2020-10-19 06:00:00 NR 13.9000 128.300 PROVISIONAL 358 305 O_____________ tcvitals WP192020 13.9000 128.300 29 1001 -1 1004 240 60 11 274
2020293N14129 2020 36 WP MM SAUDEL 2020-10-19 09:00:00 NR 13.9400 127.692 PROVISIONAL 305 272 P_____________ WP192020 13.9400 127.692 29 1002 -1 1005 220 52 12 280
2020293N14129 2020 36 WP MM SAUDEL 2020-10-19 12:00:00 NR 14.1000 127.100 PROVISIONAL 272 246 O_____________ tcvitals WP192020 14.1000 127.100 29 1003 -1 1006 200 45 12 299
2020293N14129 2020 36 WP MM SAUDEL 2020-10-19 15:00:00 NR 14.5197 126.600 PROVISIONAL 246 220 P_____________ WP192020 14.5197 126.600 29 1001 -1 1005 195 45 13 313
2020293N14129 2020 36 WP MM SAUDEL 2020-10-19 18:00:00 NR 15.0000 126.100 PROVISIONAL 220 201 O_____________ tcvitals WP192020 15.0000 126.100 29 1000 -1 1004 190 45 13 309
2020293N14129 2020 36 WP MM SAUDEL 2020-10-19 21:00:00 NR 15.3446 125.552 PROVISIONAL 201 188 P_____________ WP192020 15.3446 125.552 32 1000 -1 1004 190 45 13 297
2020293N14129 2020 36 WP MM SAUDEL 2020-10-20 00:00:00 NR 15.6000 124.900 PROVISIONAL 190 187 O_____________ tcvitals WP192020 15.6000 124.900 35 1000 0 85 60 60 85 1004 190 45 15 287
2020293N14129 2020 36 WP MM SAUDEL 2020-10-20 03:00:00 NR 15.8031 124.028 PROVISIONAL 197 112 P_____________ WP192020 15.8031 124.028 37 998 0 95 60 62 90 1003 180 45 17 280
2020293N14129 2020 36 WP MM SAUDEL 2020-10-20 06:00:00 NR 15.9000 123.200 PROVISIONAL 112 78 O_____________ tcvitals WP192020 15.9000 123.200 39 996 0 105 60 65 95 1002 170 45 12 271
2020293N14129 2020 36 WP MM SAUDEL 2020-10-20 09:00:00 NR 15.8259 122.794 PROVISIONAL 78 39 P_____________ WP192020 15.8259 122.794 42 995 0 117 67 70 100 1003 185 45 9 263
2020293N14129 2020 36 WP MM SAUDEL 2020-10-20 12:00:00 NR 15.8000 122.300 PROVISIONAL 39 0 O_____________ tcvitals WP192020 15.8000 122.300 45 995 0 130 75 75 105 1005 200 45 16 279
2020293N14129 2020 36 WP MM SAUDEL 2020-10-20 15:00:00 NR 16.0715 121.204 PROVISIONAL 0 0 P_____________ WP192020 16.0715 121.204 42 996 0 135 85 77 135 1005 200 42 23 285
2020293N14129 2020 36 WP MM SAUDEL 2020-10-20 18:00:00 NR 16.4000 120.000 PROVISIONAL 15 11 O_____________ tcvitals WP192020 16.4000 120.000 39 997 0 140 95 80 165 1005 200 40 21 285
2020293N14129 2020 36 WP MM SAUDEL 2020-10-20 21:00:00 NR 16.6097 119.065 PROVISIONAL 81 81 P_____________ WP192020 16.6097 119.065 42 996 0 137 95 75 147 1005 200 37 16 281
2020293N14129 2020 36 WP MM SAUDEL 2020-10-21 00:00:00 NR 16.7000 118.400 PROVISIONAL 155 155 O_____________ tcvitals WP192020 16.7000 118.400 45 996 0 135 95 70 130 1005 200 35 10 273
2020293N14129 2020 36 WP MM SAUDEL 2020-10-21 03:00:00 NR 16.6670 118.060 PROVISIONAL 186 186 P_____________ WP192020 16.6670 118.060 45 994 0 157 95 100 152 1004 195 35 5 247
2020293N14129 2020 36 WP MM SAUDEL 2020-10-21 06:00:00 NR 16.5000 117.900 PROVISIONAL 200 197 O_____________ tcvitals WP192020 16.5000 117.900 45 992 0 180 95 130 175 1003 190 35 6 214
2020293N14129 2020 36 WP MM SAUDEL 2020-10-21 09:00:00 NR 16.1624 117.707 PROVISIONAL 214 214 P_____________ WP192020 16.1624 117.707 45 992 0 155 90 115 155 1003 192 35 7 213
2020293N14129 2020 36 WP MM SAUDEL 2020-10-21 12:00:00 NR 15.9000 117.500 PROVISIONAL 235 235 O_____________ tcvitals WP192020 15.9000 117.500 45 993 0 130 85 100 135 1004 195 35 5 245
2020293N14129 2020 36 WP MM SAUDEL 2020-10-21 15:00:00 NR 15.9449 117.230 PROVISIONAL 267 267 P_____________ WP192020 15.9449 117.230 52 989 0 120 107 110 147 1004 202 30 7 297
2020293N14129 2020 36 WP MM SAUDEL 2020-10-21 18:00:00 NR 16.2000 116.900 PROVISIONAL 300 300 O_____________ tcvitals WP192020 16.2000 116.900 60 985 0 110 130 120 160 1004 210 25 10 311
2020293N14129 2020 36 WP MM SAUDEL 2020-10-21 21:00:00 NR 16.6152 116.433 PROVISIONAL 358 358 P_____________ WP192020 16.6153 116.433 62 983 0 118 135 110 175 1003 225 22 11 316
2020293N14129 2020 36 WP MM SAUDEL 2020-10-22 00:00:00 NR 17.0000 116.100 PROVISIONAL 399 392 O_____________ tcvitals WP192020 17.0000 116.100 64 982 1 126 140 100 190 1003 240 20 5 336
2020293N14129 2020 36 WP MM SAUDEL 2020-10-22 03:00:00 NR 17.0875 116.205 PROVISIONAL 392 372 P_____________ WP192020 17.0875 116.205 64 981 1 126 125 102 165 1003 215 20 3 71
2020293N14129 2020 36 WP MM SAUDEL 2020-10-22 06:00:00 NR 17.1000 116.400 PROVISIONAL 372 372 O_____________ tcvitals WP192020 17.1000 116.400 64 980 1 126 110 105 140 1003 190 20 2 46
2020293N14129 2020 36 WP MM SAUDEL 2020-10-22 09:00:00 NR 17.2349 116.367 PROVISIONAL 375 375 P_____________ WP192020 17.2349 116.367 67 980 1 130 112 110 137 1004 195 20 4 328
2020293N14129 2020 36 WP MM SAUDEL 2020-10-22 12:00:00 NR 17.4000 116.200 PROVISIONAL 402 402 O_____________ tcvitals WP192020 17.4000 116.200 70 980 1 135 115 115 135 1006 200 20 6 307
2020293N14129 2020 36 WP MM SAUDEL 2020-10-22 15:00:00 NR 17.5651 115.908 PROVISIONAL 439 439 P_____________ WP192020 17.5651 115.908 72 978 1 147 112 107 127 1006 210 22 6 298
2020293N14129 2020 36 WP MM SAUDEL 2020-10-22 18:00:00 NR 17.7000 115.600 PROVISIONAL 473 473 O_____________ tcvitals WP192020 17.7000 115.600 74 976 1 160 110 100 120 1006 220 25 5 292
2020293N14129 2020 36 WP MM SAUDEL 2020-10-22 21:00:00 NR 17.7574 115.412 PROVISIONAL 497 495 P_____________ WP192020 17.7574 115.412 79 972 1 187 110 120 162 1006 220 22 3 289
2020293N14129 2020 36 WP MM SAUDEL 2020-10-23 00:00:00 NR 17.8000 115.300 PROVISIONAL 495 481 O_____________ tcvitals WP192020 17.8000 115.300 84 968 2 215 110 140 205 1007 220 20 2 312
2020293N14129 2020 36 WP MM SAUDEL 2020-10-23 03:00:00 NR 17.9075 115.235 PROVISIONAL 481 476 P_____________ WP192020 17.9075 115.235 79 972 1 212 110 140 200 1006 212 20 2 333
2020293N14129 2020 36 WP MM SAUDEL 2020-10-23 06:00:00 NR 18.0000 115.200 PROVISIONAL 476 476 O_____________ tcvitals WP192020 18.0000 115.200 74 976 1 210 110 140 195 1005 205 20 1 339
2020293N14129 2020 36 WP MM SAUDEL 2020-10-23 09:00:00 NR 18.0299 115.203 PROVISIONAL 476 467 P_____________ WP192020 18.0299 115.203 74 974 1 212 110 140 187 1005 205 20 1 270
2020293N14129 2020 36 WP MM SAUDEL 2020-10-23 12:00:00 NR 18.0000 115.100 PROVISIONAL 467 443 O_____________ tcvitals WP192020 18.0000 115.100 74 973 1 215 110 140 180 1005 205 20 5 254
2020293N14129 2020 36 WP MM SAUDEL 2020-10-23 15:00:00 NR 17.9077 114.745 PROVISIONAL 433 401 P_____________ WP192020 17.9077 114.745 72 975 1 222 95 140 180 1005 197 20 8 255
2020293N14129 2020 36 WP MM SAUDEL 2020-10-23 18:00:00 NR 17.8000 114.300 PROVISIONAL 401 380 O_____________ tcvitals WP192020 17.8000 114.300 70 978 1 230 80 140 180 1006 190 20 8 257
2020293N14129 2020 36 WP MM SAUDEL 2020-10-23 21:00:00 NR 17.7347 113.973 PROVISIONAL 380 346 P_____________ WP192020 17.7347 113.973 62 983 0 205 80 127 172 1006 195 20 7 261
2020293N14129 2020 36 WP MM SAUDEL 2020-10-24 00:00:00 NR 17.7000 113.600 PROVISIONAL 346 300 O_____________ tcvitals WP192020 17.7000 113.600 54 988 0 180 80 115 165 1006 200 20 9 267
2020293N14129 2020 36 WP MM SAUDEL 2020-10-24 03:00:00 NR 17.6926 113.073 PROVISIONAL 300 244 P_____________ WP192020 17.6926 113.073 52 990 0 180 77 110 167 1006 175 20 10 270
2020293N14129 2020 36 WP MM SAUDEL 2020-10-24 06:00:00 NR 17.7000 112.500 PROVISIONAL 244 200 O_____________ tcvitals WP192020 17.7000 112.500 51 992 0 180 75 105 170 1006 150 20 10 271
2020293N14129 2020 36 WP MM SAUDEL 2020-10-24 09:00:00 NR 17.7071 112.015 PROVISIONAL 200 161 P_____________ WP192020 17.7071 112.015 51 994 0 162 72 102 148 1007 117 20 10 270
2020293N14129 2020 36 WP MM SAUDEL 2020-10-24 12:00:00 NR 17.7000 111.500 PROVISIONAL 161 123 O_____________ tcvitals WP192020 17.7000 111.500 51 996 0 145 70 100 126 1009 85 20 11 267
2020293N14129 2020 36 WP MM SAUDEL 2020-10-24 15:00:00 NR 17.6502 110.850 PROVISIONAL 115 85 P_____________ WP192020 17.6502 110.850 51 996 0 117 57 85 118 1009 92 20 12 265
2020293N14129 2020 36 WP MM SAUDEL 2020-10-24 18:00:00 NR 17.6000 110.200 PROVISIONAL 85 67 O_____________ tcvitals WP192020 17.6000 110.200 51 997 0 90 45 70 110 1009 100 20 11 267
2020293N14129 2020 36 WP MM SAUDEL 2020-10-24 21:00:00 NR 17.5997 109.678 PROVISIONAL 67 67 P_____________ WP192020 17.5997 109.678 48 998 0 92 52 67 100 1008 110 22 10 270
2020293N14129 2020 36 WP MM SAUDEL 2020-10-25 00:00:00 NR 17.6000 109.200 PROVISIONAL 74 74 O_____________ tcvitals WP192020 17.6000 109.200 45 999 0 95 60 65 90 1008 120 25 10 267
2020293N14129 2020 36 WP MM SAUDEL 2020-10-25 03:00:00 NR 17.5502 108.647 PROVISIONAL 99 99 P_____________ WP192020 17.5502 108.647 42 1000 0 82 55 62 85 1008 112 25 10 264
2020293N14129 2020 36 WP MM SAUDEL 2020-10-25 06:00:00 NR 17.5000 108.200 PROVISIONAL 119 105 O_____________ tcvitals WP192020 17.5000 108.200 39 1002 0 70 50 60 80 1008 105 25 6 263
2020293N14129 2020 36 WP MM SAUDEL 2020-10-25 09:00:00 NR 17.4772 108.020 PROVISIONAL 105 96 P_____________ WP192020 17.4772 108.020 37 1003 0 60 45 52 72 1008 100 25 3 270
2020293N14129 2020 36 WP MM SAUDEL 2020-10-25 12:00:00 NR 17.5000 107.900 PROVISIONAL 96 77 O_____________ tcvitals WP192020 17.5000 107.900 35 1005 0 50 40 45 65 1009 95 25 4 285
2020293N14129 2020 36 WP MM SAUDEL 2020-10-25 15:00:00 NR 17.5775 107.623 PROVISIONAL 77 64 P_____________ WP192020 17.5775 107.623 30 1005 -1 1009 95 25 6 289
2020293N14129 2020 36 WP MM SAUDEL 2020-10-25 18:00:00 NR 17.7000 107.300 PROVISIONAL 69 54 O_____________ tcvitals WP192020 17.7000 107.300 25 1006 -1 1009 95 25 7 295
2020293N14129 2020 36 WP MM SAUDEL 2020-10-25 21:00:00 NR 17.8575 106.993 PROVISIONAL 52 23 P_____________ WP192020 17.8575 106.993 22 1006 -1 1009 95 25 6 298
2020293N14129 2020 36 WP MM SAUDEL 2020-10-26 00:00:00 NR 18.0000 106.700 PROVISIONAL 23 10 O_____________ tcvitals WP192020 18.0000 106.700 19 1007 -1 1009 95 25 6 292
2020293N14129 2020 36 WP MM SAUDEL 2020-10-26 03:00:00 NR 18.0725 106.440 PROVISIONAL 0 0 P_____________ WP192020 18.0725 106.440 19 1007 -1 1009 95 27 5 282
2020293N14129 2020 36 WP MM SAUDEL 2020-10-26 06:00:00 NR 18.1000 106.200 PROVISIONAL 0 O_____________ tcvitals WP192020 18.1000 106.200 19 1008 -1 1009 95 30 5 277

デジタル台風データ・検索

IBTrACS Databaseについて

本データベースは、米国NOAAが公開する1842年以降の世界の熱帯低気圧のベストトラックデータアーカイブInternational Best Track Archive for Climate Stewardship (IBTrACS)を、ウェブで閲覧しやすい形式に変換したものです。

最終更新日:2021-12-08